Time,TemperatureF,DewpointF,PressureIn,WindDirection,WindDirectionDegrees,WindSpeedMPH,WindSpeedGustMPH,Humidity,HourlyPrecipIn,Conditions,Clouds,dailyrainin,SoftwareType,DateUTC
2013-08-15 00:02:00,64.2,61.2,29.29,East,90,0.0,0.0,90,0.00,CLR,,0.02,WeatherDisplay:10.37,2013-08-15 07:02:00,
2013-08-15 00:07:00,64.0,61.4,29.29,East,90,0.0,0.0,91,0.00,CLR,,0.02,WeatherDisplay:10.37,2013-08-15 07:07:00,
2013-08-15 00:12:00,64.0,61.4,29.29,East,90,0.0,0.0,91,0.00,CLR,,0.02,WeatherDisplay:10.37,2013-08-15 07:12:00,
2013-08-15 00:17:00,64.0,61.4,29.29,East,90,0.0,0.0,91,0.00,CLR,,0.02,WeatherDisplay:10.37,2013-08-15 07:17:00,
2013-08-15 00:22:00,63.9,61.2,29.30,East,90,0.0,0.0,91,0.00,CLR,,0.02,WeatherDisplay:10.37,2013-08-15 07:22:00,
2013-08-15 00:27:00,63.9,61.2,29.30,East,90,0.0,0.0,91,0.00,CLR,,0.02,WeatherDisplay:10.37,2013-08-15 07:27:00,
2013-08-15 00:32:00,63.7,61.0,29.29,East,90,0.0,0.0,91,0.00,CLR,,0.02,WeatherDisplay:10.37,2013-08-15 07:32:00,
2013-08-15 00:37:00,63.7,61.0,29.30,East,90,0.0,0.0,91,0.00,CLR,,0.02,WeatherDisplay:10.37,2013-08-15 07:37:00,
2013-08-15 00:42:00,63.7,61.0,29.29,East,90,0.0,0.0,91,0.01,RA,,0.04,WeatherDisplay:10.37,2013-08-15 07:42:00,
2013-08-15 00:47:00,63.7,61.3,29.30,East,90,0.0,0.0,92,0.01,RA,,0.05,WeatherDisplay:10.37,2013-08-15 07:47:00,
2013-08-15 00:52:00,63.5,61.1,29.30,East,90,0.0,0.0,92,0.02,RA,,0.05,WeatherDisplay:10.37,2013-08-15 07:52:00,
2013-08-15 00:57:00,63.5,61.1,29.29,East,90,0.0,0.0,92,0.04,RA,,0.06,WeatherDisplay:10.37,2013-08-15 07:57:00,
2013-08-15 01:02:00,63.5,61.1,29.29,East,90,0.0,0.0,92,0.04,RA,,0.06,WeatherDisplay:10.37,2013-08-15 08:02:00,
2013-08-15 01:07:00,63.5,61.1,29.29,East,90,0.0,0.0,92,0.05,RA,,0.07,WeatherDisplay:10.37,2013-08-15 08:07:00,
2013-08-15 01:12:00,63.5,61.1,29.29,North,4,0.0,0.0,92,0.05,RA,,0.07,WeatherDisplay:10.37,2013-08-15 08:12:00,
2013-08-15 01:17:00,63.5,61.4,29.29,East,90,1.1,0.0,93,0.05,CLR,,0.07,WeatherDisplay:10.37,2013-08-15 08:17:00,
2013-08-15 01:22:00,63.5,61.4,29.29,East,90,1.1,0.0,93,0.05,CLR,,0.07,WeatherDisplay:10.37,2013-08-15 08:22:00,
2013-08-15 01:27:00,63.5,61.4,29.29,East,90,0.0,0.0,93,0.05,CLR,,0.07,WeatherDisplay:10.37,2013-08-15 08:27:00,
2013-08-15 01:32:00,63.5,61.4,29.29,East,90,0.0,0.0,93,0.05,CLR,,0.07,WeatherDisplay:10.37,2013-08-15 08:32:00,
2013-08-15 01:37:00,63.5,61.7,29.29,East,90,0.0,0.0,94,0.05,CLR,,0.07,WeatherDisplay:10.37,2013-08-15 08:37:00,
2013-08-15 01:42:00,63.5,61.7,29.28,East,90,0.0,0.0,94,0.04,CLR,,0.07,WeatherDisplay:10.37,2013-08-15 08:42:00,
2013-08-15 01:47:00,63.5,61.7,29.28,East,90,0.0,0.0,94,0.04,CLR,,0.07,WeatherDisplay:10.37,2013-08-15 08:47:00,
2013-08-15 01:52:00,63.5,61.7,29.28,East,90,0.0,0.0,94,0.02,CLR,,0.07,WeatherDisplay:10.37,2013-08-15 08:52:00,
2013-08-15 01:57:00,63.5,61.7,29.28,East,90,0.0,0.0,94,0.01,CLR,,0.07,WeatherDisplay:10.37,2013-08-15 08:57:00,
2013-08-15 02:02:00,63.5,61.7,29.28,East,90,0.0,0.0,94,0.01,CLR,,0.07,WeatherDisplay:10.37,2013-08-15 09:02:00,
2013-08-15 02:07:00,63.3,61.6,29.28,East,90,0.0,0.0,94,0.00,CLR,,0.07,WeatherDisplay:10.37,2013-08-15 09:07:00,
2013-08-15 02:12:00,63.3,61.6,29.28,East,90,1.1,0.0,94,0.00,CLR,,0.07,WeatherDisplay:10.37,2013-08-15 09:12:00,
2013-08-15 02:17:00,63.3,61.6,29.29,East,90,0.0,0.0,94,0.00,CLR,,0.07,WeatherDisplay:10.37,2013-08-15 09:17:00,
2013-08-15 02:22:00,63.1,61.4,29.28,East,90,0.0,0.0,94,0.00,CLR,,0.07,WeatherDisplay:10.37,2013-08-15 09:22:00,
2013-08-15 02:27:00,63.1,61.4,29.28,East,90,0.0,0.0,94,0.00,CLR,,0.07,WeatherDisplay:10.37,2013-08-15 09:27:00,
2013-08-15 02:32:00,63.1,61.4,29.28,East,90,0.0,0.0,94,0.00,CLR,,0.07,WeatherDisplay:10.37,2013-08-15 09:32:00,
2013-08-15 02:37:00,63.1,61.7,29.28,East,90,0.0,0.0,95,0.00,CLR,,0.07,WeatherDisplay:10.37,2013-08-15 09:37:00,
2013-08-15 02:42:00,63.1,61.7,29.29,East,90,0.0,0.0,95,0.00,CLR,,0.07,WeatherDisplay:10.37,2013-08-15 09:42:00,
2013-08-15 02:47:00,63.1,61.7,29.28,East,90,0.0,0.0,95,0.00,CLR,,0.07,WeatherDisplay:10.37,2013-08-15 09:47:00,
2013-08-15 02:52:00,63.1,61.7,29.28,East,90,0.0,0.0,95,0.00,CLR,,0.07,WeatherDisplay:10.37,2013-08-15 09:52:00,
2013-08-15 02:57:00,63.3,61.9,29.28,East,90,0.0,0.0,95,0.00,CLR,,0.07,WeatherDisplay:10.37,2013-08-15 09:57:00,
2013-08-15 03:02:00,63.3,61.9,29.28,East,90,0.0,0.0,95,0.00,CLR,,0.07,WeatherDisplay:10.37,2013-08-15 10:02:00,
2013-08-15 03:07:00,63.3,61.9,29.28,East,90,0.0,0.0,95,0.00,CLR,,0.07,WeatherDisplay:10.37,2013-08-15 10:07:00,
2013-08-15 03:12:00,63.3,61.9,29.28,East,90,0.0,0.0,95,0.00,CLR,,0.07,WeatherDisplay:10.37,2013-08-15 10:12:00,
2013-08-15 03:17:00,63.1,61.7,29.28,East,90,0.0,0.0,95,0.00,CLR,,0.07,WeatherDisplay:10.37,2013-08-15 10:17:00,
2013-08-15 03:22:00,63.3,61.9,29.28,East,90,0.0,0.0,95,0.00,CLR,,0.07,WeatherDisplay:10.37,2013-08-15 10:22:00,
2013-08-15 03:27:00,63.3,61.9,29.28,East,90,1.1,0.0,95,0.00,CLR,,0.07,WeatherDisplay:10.37,2013-08-15 10:27:00,
2013-08-15 03:32:00,63.3,61.9,29.28,East,90,1.1,0.0,95,0.00,CLR,,0.07,WeatherDisplay:10.37,2013-08-15 10:32:00,
2013-08-15 03:37:00,63.3,61.9,29.28,East,90,0.0,0.0,95,0.00,CLR,,0.07,WeatherDisplay:10.37,2013-08-15 10:37:00,
2013-08-15 03:42:00,63.3,61.9,29.28,East,90,1.1,0.0,95,0.00,CLR,,0.07,WeatherDisplay:10.37,2013-08-15 10:42:00,
2013-08-15 03:47:00,63.3,61.9,29.28,East,90,0.0,0.0,95,0.00,CLR,,0.07,WeatherDisplay:10.37,2013-08-15 10:47:00,
2013-08-15 03:52:00,63.3,61.9,29.28,East,90,0.0,0.0,95,0.00,CLR,,0.07,WeatherDisplay:10.37,2013-08-15 10:52:00,
2013-08-15 03:57:00,63.3,61.9,29.28,East,90,0.0,0.0,95,0.00,CLR,,0.07,WeatherDisplay:10.37,2013-08-15 10:57:00,
2013-08-15 04:02:00,63.3,61.9,29.28,East,90,0.0,0.0,95,0.00,CLR,,0.07,WeatherDisplay:10.37,2013-08-15 11:02:00,
2013-08-15 04:07:00,63.3,61.9,29.28,East,90,0.0,0.0,95,0.00,CLR,,0.07,WeatherDisplay:10.37,2013-08-15 11:07:00,
2013-08-15 04:12:00,63.3,62.2,29.28,East,90,0.0,0.0,96,0.00,CLR,,0.07,WeatherDisplay:10.37,2013-08-15 11:12:00,
2013-08-15 04:17:00,63.3,61.9,29.28,East,90,1.1,0.0,95,0.00,CLR,,0.07,WeatherDisplay:10.37,2013-08-15 11:17:00,
2013-08-15 04:23:00,63.1,62.0,29.28,East,90,0.0,0.0,96,0.00,CLR,,0.07,WeatherDisplay:10.37,2013-08-15 11:23:00,
2013-08-15 04:27:00,63.1,62.0,29.28,East,90,1.1,0.0,96,0.00,CLR,,0.07,WeatherDisplay:10.37,2013-08-15 11:27:00,
2013-08-15 04:33:00,63.1,62.0,29.28,East,90,0.0,0.0,96,0.00,CLR,,0.07,WeatherDisplay:10.37,2013-08-15 11:33:00,
2013-08-15 04:38:00,63.1,62.0,29.28,East,90,1.1,0.0,96,0.00,CLR,,0.07,WeatherDisplay:10.37,2013-08-15 11:38:00,
2013-08-15 04:43:00,63.1,62.0,29.28,East,90,2.3,0.0,96,0.00,CLR,,0.07,WeatherDisplay:10.37,2013-08-15 11:43:00,
2013-08-15 04:48:00,63.1,62.0,29.28,East,90,1.1,0.0,96,0.00,CLR,,0.07,WeatherDisplay:10.37,2013-08-15 11:48:00,
2013-08-15 04:53:00,63.1,62.0,29.28,SE,135,0.0,0.0,96,0.00,CLR,,0.07,WeatherDisplay:10.37,2013-08-15 11:53:00,
2013-08-15 04:58:00,63.1,62.0,29.28,SE,135,0.0,0.0,96,0.00,CLR,,0.07,WeatherDisplay:10.37,2013-08-15 11:58:00,
2013-08-15 05:03:00,63.1,62.0,29.28,East,90,0.0,0.0,96,0.00,CLR,,0.07,WeatherDisplay:10.37,2013-08-15 12:03:00,
2013-08-15 05:08:00,63.1,62.0,29.28,SE,135,1.1,0.0,96,0.00,CLR,,0.07,WeatherDisplay:10.37,2013-08-15 12:08:00,
2013-08-15 05:13:00,63.1,62.0,29.28,South,180,1.1,0.0,96,0.00,CLR,,0.07,WeatherDisplay:10.37,2013-08-15 12:13:00,
2013-08-15 05:18:00,63.0,61.8,29.28,East,90,1.1,0.0,96,0.00,CLR,,0.07,WeatherDisplay:10.37,2013-08-15 12:18:00,
2013-08-15 05:23:00,63.1,62.0,29.28,East,90,0.0,0.0,96,0.00,CLR,,0.07,WeatherDisplay:10.37,2013-08-15 12:23:00,
2013-08-15 05:28:00,63.1,62.0,29.28,East,90,0.7,0.0,96,0.00,CLR,,0.07,WeatherDisplay:10.37,2013-08-15 12:28:00,
2013-08-15 05:33:00,63.1,62.0,29.28,East,90,0.0,0.0,96,0.00,CLR,,0.07,WeatherDisplay:10.37,2013-08-15 12:33:00,
2013-08-15 05:38:00,63.0,61.8,29.28,East,90,0.0,0.0,96,0.00,CLR,,0.07,WeatherDisplay:10.37,2013-08-15 12:38:00,
2013-08-15 05:43:00,63.3,62.2,29.28,East,90,1.1,0.0,96,0.00,CLR,,0.07,WeatherDisplay:10.37,2013-08-15 12:43:00,
2013-08-15 05:48:00,63.0,61.8,29.28,East,90,0.0,0.0,96,0.00,CLR,,0.07,WeatherDisplay:10.37,2013-08-15 12:48:00,
2013-08-15 05:53:00,63.0,61.8,29.28,East,90,0.0,0.0,96,0.00,CLR,,0.07,WeatherDisplay:10.37,2013-08-15 12:53:00,
2013-08-15 05:58:00,63.0,61.8,29.29,East,90,0.0,0.0,96,0.00,CLR,,0.07,WeatherDisplay:10.37,2013-08-15 12:58:00,
2013-08-15 06:03:00,63.0,61.8,29.29,East,90,0.0,0.0,96,0.00,CLR,,0.07,WeatherDisplay:10.37,2013-08-15 13:03:00,
2013-08-15 06:08:00,63.0,61.8,29.28,East,90,0.0,0.0,96,0.00,CLR,,0.07,WeatherDisplay:10.37,2013-08-15 13:08:00,
2013-08-15 06:13:00,63.0,61.8,29.28,East,90,0.0,0.0,96,0.00,CLR,,0.07,WeatherDisplay:10.37,2013-08-15 13:13:00,
2013-08-15 06:18:00,63.0,61.8,29.29,East,90,0.0,0.0,96,0.00,CLR,,0.07,WeatherDisplay:10.37,2013-08-15 13:18:00,
2013-08-15 06:23:00,63.0,61.8,29.28,East,90,0.0,0.0,96,0.00,CLR,,0.07,WeatherDisplay:10.37,2013-08-15 13:23:00,
2013-08-15 06:28:00,63.1,62.0,29.28,East,90,0.0,0.0,96,0.00,CLR,,0.07,WeatherDisplay:10.37,2013-08-15 13:28:00,
2013-08-15 06:33:00,63.1,62.0,29.28,East,90,0.0,0.0,96,0.00,CLR,,0.07,WeatherDisplay:10.37,2013-08-15 13:33:00,
2013-08-15 06:38:00,63.1,62.0,29.29,East,90,0.0,0.0,96,0.00,CLR,,0.07,WeatherDisplay:10.37,2013-08-15 13:38:00,
2013-08-15 06:43:00,63.3,62.2,29.29,East,90,0.0,0.0,96,0.00,CLR,,0.07,WeatherDisplay:10.37,2013-08-15 13:43:00,
2013-08-15 06:48:00,63.5,62.3,29.29,East,90,0.0,0.0,96,0.00,CLR,,0.07,WeatherDisplay:10.37,2013-08-15 13:48:00,
2013-08-15 06:53:00,63.3,62.2,29.29,East,90,0.0,0.0,96,0.00,CLR,,0.07,WeatherDisplay:10.37,2013-08-15 13:53:00,
2013-08-15 06:58:00,63.5,62.3,29.29,East,90,0.0,0.0,96,0.00,CLR,,0.07,WeatherDisplay:10.37,2013-08-15 13:58:00,
2013-08-15 07:03:00,63.5,62.3,29.28,East,90,0.0,0.0,96,0.00,CLR,,0.07,WeatherDisplay:10.37,2013-08-15 14:03:00,
2013-08-15 07:08:00,63.5,62.3,29.29,East,90,0.0,0.0,96,0.00,CLR,,0.07,WeatherDisplay:10.37,2013-08-15 14:08:00,
2013-08-15 07:13:00,63.7,62.5,29.28,East,90,0.0,0.0,96,0.00,CLR,,0.07,WeatherDisplay:10.37,2013-08-15 14:13:00,
2013-08-15 07:18:00,63.9,62.7,29.29,East,90,0.0,0.0,96,0.00,CLR,,0.07,WeatherDisplay:10.37,2013-08-15 14:18:00,
2013-08-15 07:23:00,63.9,62.7,29.29,East,90,0.0,0.0,96,0.00,CLR,,0.07,WeatherDisplay:10.37,2013-08-15 14:23:00,
2013-08-15 07:28:00,64.0,62.9,29.30,East,90,1.1,0.0,96,0.00,CLR,,0.07,WeatherDisplay:10.37,2013-08-15 14:28:00,
2013-08-15 07:33:00,64.0,62.9,29.30,NE,45,1.1,0.0,96,0.00,CLR,,0.07,WeatherDisplay:10.37,2013-08-15 14:33:00,
2013-08-15 07:38:00,64.0,62.9,29.29,NE,45,0.0,0.0,96,0.00,CLR,,0.07,WeatherDisplay:10.37,2013-08-15 14:38:00,
2013-08-15 07:43:00,64.2,63.1,29.30,NE,45,0.0,0.0,96,0.00,CLR,,0.07,WeatherDisplay:10.37,2013-08-15 14:43:00,
2013-08-15 07:48:00,64.6,63.4,29.29,NE,45,0.0,0.0,96,0.00,CLR,,0.07,WeatherDisplay:10.37,2013-08-15 14:48:00,
2013-08-15 07:53:00,64.8,63.6,29.30,NE,45,0.0,0.0,96,0.00,CLR,,0.07,WeatherDisplay:10.37,2013-08-15 14:53:00,
2013-08-15 07:59:00,64.8,63.6,29.30,NE,45,0.0,0.0,96,0.00,CLR,,0.07,WeatherDisplay:10.37,2013-08-15 14:59:00,
2013-08-15 08:04:00,65.1,64.0,29.30,NE,45,0.0,0.0,96,0.00,CLR,,0.07,WeatherDisplay:10.37,2013-08-15 15:04:00,
2013-08-15 08:09:00,65.1,64.0,29.31,NW,315,1.1,0.0,96,0.00,CLR,,0.07,WeatherDisplay:10.37,2013-08-15 15:09:00,
2013-08-15 08:14:00,65.3,64.1,29.31,NW,315,0.0,0.0,96,0.00,CLR,,0.07,WeatherDisplay:10.37,2013-08-15 15:14:00,
2013-08-15 08:19:00,65.5,64.3,29.31,NW,315,0.0,0.0,96,0.00,CLR,,0.07,WeatherDisplay:10.37,2013-08-15 15:19:00,
2013-08-15 08:24:00,65.7,64.5,29.31,NE,45,1.6,0.0,96,0.00,CLR,,0.07,WeatherDisplay:10.37,2013-08-15 15:24:00,
2013-08-15 08:29:00,65.7,64.5,29.30,SE,135,1.1,0.0,96,0.00,CLR,,0.07,WeatherDisplay:10.37,2013-08-15 15:29:00,
2013-08-15 08:34:00,65.7,64.2,29.30,SW,225,1.1,0.0,95,0.00,CLR,,0.07,WeatherDisplay:10.37,2013-08-15 15:34:00,
2013-08-15 08:39:00,65.7,64.2,29.30,NE,45,2.3,2.3,95,0.00,CLR,,0.07,WeatherDisplay:10.37,2013-08-15 15:39:00,
2013-08-15 08:44:00,65.8,64.4,29.30,East,90,1.1,1.1,95,0.00,CLR,,0.07,WeatherDisplay:10.37,2013-08-15 15:44:00,
2013-08-15 08:49:00,66.0,64.5,29.30,South,180,2.3,2.3,95,0.00,CLR,,0.07,WeatherDisplay:10.37,2013-08-15 15:49:00,
2013-08-15 08:54:00,66.4,64.6,29.30,South,180,0.0,0.0,94,0.00,CLR,,0.07,WeatherDisplay:10.37,2013-08-15 15:54:00,
2013-08-15 09:00:00,66.7,65.0,29.30,East,90,1.1,0.0,94,0.00,CLR,,0.07,WeatherDisplay:10.37,2013-08-15 16:00:00,
2013-08-15 09:05:00,67.1,65.3,29.30,East,90,1.1,0.0,94,0.00,CLR,,0.07,WeatherDisplay:10.37,2013-08-15 16:05:00,
2013-08-15 09:10:00,67.5,65.4,29.30,West,270,1.1,0.0,93,0.00,CLR,,0.07,WeatherDisplay:10.37,2013-08-15 16:10:00,
2013-08-15 09:15:00,67.6,65.2,29.30,West,270,0.0,0.0,92,0.00,CLR,,0.07,WeatherDisplay:10.37,2013-08-15 16:15:00,
2013-08-15 09:20:00,67.8,65.4,29.30,West,270,0.0,0.0,92,0.00,CLR,CLR,0.07,WeatherDisplay:10.37,2013-08-15 16:20:00,
2013-08-15 09:25:00,68.2,65.8,29.30,West,270,0.0,0.0,92,0.00,CLR,,0.07,WeatherDisplay:10.37,2013-08-15 16:25:00,
2013-08-15 09:30:00,68.2,65.5,29.30,West,270,1.1,0.0,91,0.00,CLR,,0.07,WeatherDisplay:10.37,2013-08-15 16:30:00,
2013-08-15 09:35:00,68.4,65.6,29.31,East,90,1.1,0.0,91,0.00,CLR,,0.07,WeatherDisplay:10.37,2013-08-15 16:35:00,
2013-08-15 09:40:00,68.4,65.3,29.30,East,90,1.1,0.0,90,0.00,CLR,,0.07,WeatherDisplay:10.37,2013-08-15 16:40:00,
2013-08-15 09:45:00,68.5,65.5,29.30,East,90,1.1,0.0,90,0.00,CLR,,0.07,WeatherDisplay:10.37,2013-08-15 16:45:00,
2013-08-15 09:50:00,68.7,65.7,29.30,East,90,0.0,0.0,90,0.00,CLR,,0.07,WeatherDisplay:10.37,2013-08-15 16:50:00,
2013-08-15 09:55:00,69.3,66.2,29.31,East,90,1.1,0.0,90,0.00,CLR,,0.07,WeatherDisplay:10.37,2013-08-15 16:55:00,
2013-08-15 10:00:00,69.8,66.4,29.31,North,0,1.1,0.0,89,0.00,CLR,,0.07,WeatherDisplay:10.37,2013-08-15 17:00:00,
2013-08-15 10:05:00,70.0,66.3,29.30,SW,225,1.1,0.0,88,0.00,CLR,,0.07,WeatherDisplay:10.37,2013-08-15 17:05:00,
2013-08-15 10:10:00,70.3,66.0,29.30,NW,315,1.1,0.0,86,0.00,CLR,,0.07,WeatherDisplay:10.37,2013-08-15 17:10:00,
2013-08-15 10:15:00,70.3,66.0,29.30,SE,135,1.1,1.1,86,0.00,CLR,,0.07,WeatherDisplay:10.37,2013-08-15 17:15:00,
2013-08-15 10:20:00,70.3,65.6,29.30,SE,135,1.6,0.0,85,0.00,CLR,,0.07,WeatherDisplay:10.37,2013-08-15 17:20:00,
2013-08-15 10:25:00,70.7,65.6,29.30,East,90,1.1,0.0,84,0.00,CLR,,0.07,WeatherDisplay:10.37,2013-08-15 17:25:00,
2013-08-15 10:31:00,70.7,66.0,29.30,East,90,0.0,0.0,85,0.00,CLR,,0.07,WeatherDisplay:10.37,2013-08-15 17:31:00,
2013-08-15 10:36:00,70.7,66.0,29.30,North,4,0.0,0.0,85,0.00,CLR,,0.07,WeatherDisplay:10.37,2013-08-15 17:36:00,
2013-08-15 10:41:00,70.2,65.1,29.31,West,270,1.1,0.0,84,0.00,CLR,,0.07,WeatherDisplay:10.37,2013-08-15 17:41:00,
2013-08-15 10:47:00,70.0,65.3,29.31,West,270,1.1,0.0,85,0.00,CLR,,0.07,WeatherDisplay:10.37,2013-08-15 17:47:00,
2013-08-15 10:52:00,69.8,65.1,29.31,South,180,1.1,0.0,85,0.00,CLR,,0.07,WeatherDisplay:10.37,2013-08-15 17:52:00,
2013-08-15 10:57:00,69.8,65.1,29.31,South,180,1.1,0.0,85,0.00,CLR,,0.07,WeatherDisplay:10.37,2013-08-15 17:57:00,
2013-08-15 11:02:00,69.8,65.1,29.31,South,180,1.1,0.0,85,0.00,CLR,,0.07,WeatherDisplay:10.37,2013-08-15 18:02:00,
2013-08-15 11:07:00,70.0,65.6,29.31,South,180,0.0,0.0,86,0.00,CLR,,0.07,WeatherDisplay:10.37,2013-08-15 18:07:00,
2013-08-15 11:12:00,70.0,65.6,29.31,NE,45,0.0,0.0,86,0.00,CLR,,0.07,WeatherDisplay:10.37,2013-08-15 18:12:00,
2013-08-15 11:17:00,70.2,65.8,29.31,NE,45,1.1,0.0,86,0.00,CLR,,0.07,WeatherDisplay:10.37,2013-08-15 18:17:00,
2013-08-15 11:23:00,70.3,66.0,29.31,SW,225,0.0,0.0,86,0.00,CLR,,0.07,WeatherDisplay:10.37,2013-08-15 18:23:00,
2013-08-15 11:28:00,70.5,65.8,29.31,SW,225,1.1,0.0,85,0.00,CLR,,0.07,WeatherDisplay:10.37,2013-08-15 18:28:00,
2013-08-15 11:33:00,70.7,66.0,29.31,SW,225,0.0,0.0,85,0.00,CLR,,0.07,WeatherDisplay:10.37,2013-08-15 18:33:00,
2013-08-15 11:38:00,70.9,66.1,29.31,SE,135,1.1,0.0,85,0.00,CLR,,0.07,WeatherDisplay:10.37,2013-08-15 18:38:00,
2013-08-15 11:44:00,71.2,66.5,29.31,SW,225,1.6,0.0,85,0.00,CLR,,0.07,WeatherDisplay:10.37,2013-08-15 18:44:00,
2013-08-15 11:49:00,71.2,65.8,29.32,East,90,1.1,0.0,83,0.00,CLR,,0.07,WeatherDisplay:10.37,2013-08-15 18:49:00,
2013-08-15 11:54:00,71.2,65.8,29.32,East,90,1.1,0.0,83,0.00,CLR,,0.07,WeatherDisplay:10.37,2013-08-15 18:54:00,
2013-08-15 11:59:00,71.2,65.8,29.32,West,270,1.1,0.0,83,0.00,CLR,,0.07,WeatherDisplay:10.37,2013-08-15 18:59:00,
2013-08-15 12:05:00,71.2,65.5,29.32,SW,221,0.0,0.0,82,0.00,CLR,CLR,0.07,WeatherDisplay:10.37,2013-08-15 19:05:00,
2013-08-15 12:10:00,71.1,65.3,29.32,NE,45,1.1,1.1,82,0.00,CLR,,0.07,WeatherDisplay:10.37,2013-08-15 19:10:00,
2013-08-15 12:15:00,71.1,65.3,29.32,South,180,1.1,0.0,82,0.00,CLR,,0.07,WeatherDisplay:10.37,2013-08-15 19:15:00,
2013-08-15 12:20:00,71.3,65.5,29.31,South,173,0.0,0.0,82,0.00,CLR,CLR,0.07,WeatherDisplay:10.37,2013-08-15 19:20:00,
2013-08-15 12:25:00,71.6,65.8,29.31,East,90,1.1,0.0,82,0.00,CLR,,0.07,WeatherDisplay:10.37,2013-08-15 19:25:00,
2013-08-15 12:30:00,71.8,65.6,29.31,West,270,1.1,0.0,81,0.00,CLR,,0.07,WeatherDisplay:10.37,2013-08-15 19:30:00,
2013-08-15 12:35:00,71.8,65.3,29.31,West,270,1.1,0.0,80,0.00,CLR,,0.07,WeatherDisplay:10.37,2013-08-15 19:35:00,
2013-08-15 12:40:00,71.8,65.3,29.31,West,270,1.1,0.0,80,0.00,CLR,,0.07,WeatherDisplay:10.37,2013-08-15 19:40:00,
2013-08-15 12:45:00,71.6,65.1,29.31,East,90,1.1,0.0,80,0.00,CLR,,0.07,WeatherDisplay:10.37,2013-08-15 19:45:00,
2013-08-15 12:50:00,71.4,65.3,29.31,West,270,1.1,0.0,81,0.00,CLR,,0.07,WeatherDisplay:10.37,2013-08-15 19:50:00,
2013-08-15 12:56:00,71.2,65.1,29.32,SE,135,1.1,0.0,81,0.00,CLR,,0.07,WeatherDisplay:10.37,2013-08-15 19:56:00,
2013-08-15 13:01:00,70.9,64.8,29.32,NE,45,1.1,0.0,81,0.00,CLR,,0.07,WeatherDisplay:10.37,2013-08-15 20:01:00,
2013-08-15 13:06:00,70.5,64.8,29.32,SE,135,2.3,0.0,82,0.00,CLR,,0.07,WeatherDisplay:10.37,2013-08-15 20:06:00,
2013-08-15 13:12:00,70.0,64.2,29.32,SE,135,2.3,0.0,82,0.00,CLR,,0.07,WeatherDisplay:10.37,2013-08-15 20:12:00,
2013-08-15 13:17:00,69.4,63.7,29.32,SW,225,3.5,3.5,82,0.00,CLR,,0.07,WeatherDisplay:10.37,2013-08-15 20:17:00,
2013-08-15 13:22:00,69.1,64.0,29.33,South,180,1.1,0.0,84,0.00,CLR,,0.07,WeatherDisplay:10.37,2013-08-15 20:22:00,
2013-08-15 13:27:00,69.1,64.0,29.32,East,90,3.5,0.0,84,0.00,CLR,,0.07,WeatherDisplay:10.37,2013-08-15 20:27:00,
2013-08-15 13:33:00,69.3,64.2,29.32,East,90,3.5,3.5,84,0.00,CLR,,0.07,WeatherDisplay:10.37,2013-08-15 20:33:00,
2013-08-15 13:38:00,69.3,64.2,29.32,South,180,2.3,0.0,84,0.00,CLR,,0.07,WeatherDisplay:10.37,2013-08-15 20:38:00,
2013-08-15 13:43:00,70.0,64.9,29.32,South,180,1.1,0.0,84,0.00,CLR,,0.07,WeatherDisplay:10.37,2013-08-15 20:43:00,
2013-08-15 13:48:00,70.3,65.3,29.32,East,90,1.1,0.0,84,0.00,CLR,,0.07,WeatherDisplay:10.37,2013-08-15 20:48:00,
2013-08-15 13:53:00,71.1,65.6,29.33,SE,135,3.5,3.5,83,0.00,CLR,,0.07,WeatherDisplay:10.37,2013-08-15 20:53:00,
2013-08-15 13:59:00,71.2,65.5,29.33,East,90,0.0,0.0,82,0.00,CLR,,0.07,WeatherDisplay:10.37,2013-08-15 20:59:00,
2013-08-15 14:04:00,71.6,65.8,29.33,SE,135,1.1,0.0,82,0.00,CLR,,0.07,WeatherDisplay:10.37,2013-08-15 21:04:00,
2013-08-15 14:09:00,71.4,65.3,29.33,South,180,1.1,0.0,81,0.00,CLR,,0.07,WeatherDisplay:10.37,2013-08-15 21:09:00,
2013-08-15 14:15:00,71.2,65.1,29.33,East,90,1.1,0.0,81,0.00,CLR,,0.07,WeatherDisplay:10.37,2013-08-15 21:15:00,
2013-08-15 14:20:00,71.1,64.9,29.33,South,180,4.6,0.0,81,0.00,CLR,,0.07,WeatherDisplay:10.37,2013-08-15 21:20:00,
2013-08-15 14:25:00,70.7,64.6,29.33,SE,135,2.3,0.0,81,0.00,CLR,,0.07,WeatherDisplay:10.37,2013-08-15 21:25:00,
2013-08-15 14:30:00,70.3,64.2,29.33,NE,45,1.1,0.0,81,0.00,CLR,,0.07,WeatherDisplay:10.37,2013-08-15 21:30:00,
2013-08-15 14:35:00,70.2,64.4,29.33,East,90,3.5,3.5,82,0.00,CLR,,0.07,WeatherDisplay:10.37,2013-08-15 21:35:00,
2013-08-15 14:40:00,69.8,64.4,29.33,East,90,2.3,0.0,83,0.00,CLR,,0.07,WeatherDisplay:10.37,2013-08-15 21:40:00,
2013-08-15 14:45:00,69.8,64.7,29.34,East,90,1.6,0.0,84,0.00,CLR,,0.07,WeatherDisplay:10.37,2013-08-15 21:45:00,
2013-08-15 14:50:00,69.8,64.7,29.34,North,0,1.1,0.0,84,0.00,CLR,,0.07,WeatherDisplay:10.37,2013-08-15 21:50:00,
2013-08-15 14:55:00,69.8,65.1,29.34,SW,225,1.1,1.1,85,0.00,CLR,,0.07,WeatherDisplay:10.37,2013-08-15 21:55:00,
2013-08-15 15:00:00,69.6,64.9,29.34,NE,45,1.1,0.0,85,0.00,CLR,,0.07,WeatherDisplay:10.37,2013-08-15 22:00:00,
2013-08-15 15:05:00,69.8,65.1,29.34,South,180,2.3,0.0,85,0.00,CLR,,0.07,WeatherDisplay:10.37,2013-08-15 22:05:00,
2013-08-15 15:10:00,69.6,64.6,29.34,South,180,1.1,1.1,84,0.00,CLR,,0.07,WeatherDisplay:10.37,2013-08-15 22:10:00,
2013-08-15 15:16:00,69.6,64.6,29.34,SW,225,3.5,0.0,84,0.00,CLR,,0.07,WeatherDisplay:10.37,2013-08-15 22:16:00,
2013-08-15 15:21:00,69.6,64.9,29.34,East,90,1.1,0.0,85,0.00,CLR,,0.07,WeatherDisplay:10.37,2013-08-15 22:21:00,
2013-08-15 15:26:00,69.6,64.9,29.34,NE,45,3.5,3.5,85,0.00,CLR,,0.07,WeatherDisplay:10.37,2013-08-15 22:26:00,
2013-08-15 15:31:00,69.4,64.7,29.34,NE,45,1.1,0.0,85,0.00,CLR,,0.07,WeatherDisplay:10.37,2013-08-15 22:31:00,
2013-08-15 15:36:00,69.3,64.6,29.35,NE,45,1.1,0.0,85,0.00,CLR,,0.07,WeatherDisplay:10.37,2013-08-15 22:36:00,
2013-08-15 15:41:00,68.9,64.5,29.34,West,270,1.1,0.0,86,0.00,CLR,,0.08,WeatherDisplay:10.37,2013-08-15 22:41:00,
2013-08-15 15:46:00,68.7,64.7,29.35,SW,225,1.1,0.0,87,0.04,RA,,0.11,WeatherDisplay:10.37,2013-08-15 22:46:00,
2013-08-15 15:51:00,68.4,64.7,29.35,North,0,0.0,0.0,88,0.05,RA,,0.12,WeatherDisplay:10.37,2013-08-15 22:51:00,
2013-08-15 15:56:00,68.2,64.8,29.35,East,90,2.3,0.0,89,0.05,RA,,0.12,WeatherDisplay:10.37,2013-08-15 22:56:00,
2013-08-15 16:01:00,67.8,64.8,29.33,NE,45,1.1,0.0,90,0.06,RA,,0.01,WeatherDisplay:10.37,2013-08-15 23:01:00,
2013-08-15 16:07:00,67.8,64.8,29.33,West,270,1.1,0.0,90,0.07,RA,,0.01,WeatherDisplay:10.37,2013-08-15 23:07:00,
2013-08-15 16:12:00,67.6,64.6,29.33,West,270,1.1,0.0,90,0.07,,,0.01,WeatherDisplay:10.37,2013-08-15 23:12:00,
2013-08-15 16:17:00,67.6,64.9,29.34,West,270,1.1,0.0,91,0.07,CLR,,0.01,WeatherDisplay:10.37,2013-08-15 23:17:00,
2013-08-15 16:22:00,67.6,65.2,29.32,North,0,1.1,0.0,92,0.07,CLR,,0.01,WeatherDisplay:10.37,2013-08-15 23:22:00,
2013-08-15 16:27:00,67.6,65.2,29.32,West,270,1.1,0.0,92,0.07,CLR,,0.01,WeatherDisplay:10.37,2013-08-15 23:27:00,
2013-08-15 16:32:00,67.8,65.4,29.32,West,270,0.0,0.0,92,0.07,CLR,,0.01,WeatherDisplay:10.37,2013-08-15 23:32:00,
2013-08-15 16:37:00,68.0,65.9,29.33,West,270,0.0,0.0,93,0.07,CLR,,0.01,WeatherDisplay:10.37,2013-08-15 23:37:00,
2013-08-15 16:42:00,68.2,66.1,29.33,West,270,0.0,0.0,93,0.07,CLR,,0.01,WeatherDisplay:10.37,2013-08-15 23:42:00,
2013-08-15 16:47:00,68.2,66.1,29.34,West,270,1.1,0.0,93,0.04,CLR,,0.01,WeatherDisplay:10.37,2013-08-15 23:47:00,
2013-08-15 16:52:00,68.2,66.1,29.33,East,90,1.1,0.0,93,0.02,CLR,,0.01,WeatherDisplay:10.37,2013-08-15 23:52:00,
2013-08-15 16:57:00,68.0,65.9,29.33,SE,135,1.1,0.0,93,0.02,CLR,,0.01,WeatherDisplay:10.37,2013-08-15 23:57:00,
2013-08-15 17:03:00,67.8,65.7,29.33,SE,135,1.1,0.0,93,0.00,CLR,,0.01,WeatherDisplay:10.37,2013-08-16 00:03:00,
2013-08-15 17:08:00,67.8,65.7,29.33,SSE,158,0.0,0.0,93,0.00,CLR,,0.01,WeatherDisplay:10.37,2013-08-16 00:08:00,
2013-08-15 17:13:00,67.6,65.5,29.33,West,270,1.1,0.0,93,0.00,CLR,,0.01,WeatherDisplay:10.37,2013-08-16 00:13:00,
2013-08-15 17:18:00,67.6,65.5,29.33,NW,315,1.1,0.0,93,0.00,CLR,,0.01,WeatherDisplay:10.37,2013-08-16 00:18:00,
2013-08-15 17:23:00,67.6,65.5,29.33,NW,315,1.1,0.0,93,0.00,CLR,,0.01,WeatherDisplay:10.37,2013-08-16 00:23:00,
2013-08-15 17:28:00,67.6,65.5,29.33,NW,315,0.0,0.0,93,0.00,CLR,,0.01,WeatherDisplay:10.37,2013-08-16 00:28:00,
2013-08-15 17:33:00,67.5,65.4,29.33,West,270,1.1,0.0,93,0.00,CLR,,0.01,WeatherDisplay:10.37,2013-08-16 00:33:00,
2013-08-15 17:38:00,67.3,65.2,29.33,West,270,1.1,1.1,93,0.00,CLR,,0.01,WeatherDisplay:10.37,2013-08-16 00:38:00,
2013-08-15 17:43:00,67.1,65.0,29.33,West,270,0.0,0.0,93,0.00,CLR,,0.01,WeatherDisplay:10.37,2013-08-16 00:43:00,
2013-08-15 17:48:00,66.9,64.8,29.33,West,270,1.6,0.0,93,0.00,CLR,,0.01,WeatherDisplay:10.37,2013-08-16 00:48:00,
2013-08-15 17:53:00,66.7,65.0,29.33,West,270,0.0,0.0,94,0.00,CLR,,0.01,WeatherDisplay:10.37,2013-08-16 00:53:00,
2013-08-15 17:58:00,66.7,65.0,29.33,West,270,0.0,0.0,94,0.00,CLR,,0.01,WeatherDisplay:10.37,2013-08-16 00:58:00,
2013-08-15 18:03:00,66.7,65.0,29.33,West,270,0.0,0.0,94,0.00,CLR,,0.01,WeatherDisplay:10.37,2013-08-16 01:03:00,
2013-08-15 18:08:00,66.7,65.0,29.33,West,270,0.0,0.0,94,0.00,CLR,,0.01,WeatherDisplay:10.37,2013-08-16 01:08:00,
2013-08-15 18:13:00,66.7,65.0,29.34,West,270,0.0,0.0,94,0.00,CLR,,0.01,WeatherDisplay:10.37,2013-08-16 01:13:00,
2013-08-15 18:19:00,66.7,65.0,29.33,NE,45,1.1,0.0,94,0.00,CLR,,0.01,WeatherDisplay:10.37,2013-08-16 01:19:00,
2013-08-15 18:24:00,66.9,65.1,29.33,SE,135,0.0,0.0,94,0.00,CLR,,0.01,WeatherDisplay:10.37,2013-08-16 01:24:00,
2013-08-15 18:29:00,67.1,65.6,29.33,SE,135,1.1,0.0,95,0.00,CLR,,0.01,WeatherDisplay:10.37,2013-08-16 01:29:00,
2013-08-15 18:34:00,67.3,65.8,29.32,SE,135,0.0,0.0,95,0.00,CLR,,0.01,WeatherDisplay:10.37,2013-08-16 01:34:00,
2013-08-15 18:40:00,67.3,65.8,29.32,SE,135,0.0,0.0,95,0.00,CLR,CLR,0.01,WeatherDisplay:10.37,2013-08-16 01:40:00,
2013-08-15 18:45:00,67.5,66.0,29.32,SE,135,0.0,0.0,95,0.00,CLR,,0.01,WeatherDisplay:10.37,2013-08-16 01:45:00,
2013-08-15 18:50:00,67.3,65.8,29.33,SE,135,0.0,0.0,95,0.00,CLR,CLR,0.01,WeatherDisplay:10.37,2013-08-16 01:50:00,
2013-08-15 18:55:00,67.3,65.8,29.32,SE,135,0.0,0.0,95,0.00,CLR,,0.01,WeatherDisplay:10.37,2013-08-16 01:55:00,
2013-08-15 19:00:00,67.3,65.5,29.33,South,180,0.0,0.0,94,0.00,CLR,,0.01,WeatherDisplay:10.37,2013-08-16 02:00:00,
2013-08-15 19:05:00,67.3,65.8,29.33,South,180,0.0,0.0,95,0.00,CLR,,0.01,WeatherDisplay:10.37,2013-08-16 02:05:00,
2013-08-15 19:10:00,67.3,65.8,29.33,South,180,0.0,0.0,95,0.00,CLR,CLR,0.01,WeatherDisplay:10.37,2013-08-16 02:10:00,
2013-08-15 19:15:00,67.3,65.8,29.33,South,180,0.0,0.0,95,0.00,CLR,,0.01,WeatherDisplay:10.37,2013-08-16 02:15:00,
2013-08-15 19:20:00,67.1,65.6,29.32,South,180,0.0,0.0,95,0.00,CLR,CLR,0.01,WeatherDisplay:10.37,2013-08-16 02:20:00,
2013-08-15 19:25:00,67.1,65.6,29.32,South,180,0.0,0.0,95,0.00,CLR,,0.01,WeatherDisplay:10.37,2013-08-16 02:25:00,
2013-08-15 19:30:00,67.1,65.6,29.32,South,180,0.0,0.0,95,0.00,CLR,CLR,0.01,WeatherDisplay:10.37,2013-08-16 02:30:00,
2013-08-15 19:35:00,66.9,65.4,29.32,South,180,0.0,0.0,95,0.00,CLR,,0.01,WeatherDisplay:10.37,2013-08-16 02:35:00,
2013-08-15 19:40:00,66.9,65.4,29.32,South,180,0.0,0.0,95,0.00,CLR,CLR,0.01,WeatherDisplay:10.37,2013-08-16 02:40:00,
2013-08-15 19:45:00,66.7,65.3,29.32,South,180,0.0,0.0,95,0.00,CLR,,0.01,WeatherDisplay:10.37,2013-08-16 02:45:00,
2013-08-15 19:50:00,66.7,65.3,29.32,South,180,0.0,0.0,95,0.00,CLR,,0.01,WeatherDisplay:10.37,2013-08-16 02:50:00,
2013-08-15 19:55:00,66.7,65.3,29.32,South,180,0.0,0.0,95,0.00,CLR,,0.01,WeatherDisplay:10.37,2013-08-16 02:55:00,
2013-08-15 20:00:00,66.6,65.1,29.32,South,180,0.0,0.0,95,0.00,CLR,,0.01,WeatherDisplay:10.37,2013-08-16 03:00:00,
2013-08-15 20:05:00,66.7,65.3,29.33,South,180,0.0,0.0,95,0.00,CLR,,0.01,WeatherDisplay:10.37,2013-08-16 03:05:00,
2013-08-15 20:10:00,66.7,65.3,29.32,South,180,0.0,0.0,95,0.00,CLR,,0.01,WeatherDisplay:10.37,2013-08-16 03:10:00,
2013-08-15 20:15:00,66.7,65.3,29.32,South,180,0.0,0.0,95,0.00,CLR,,0.01,WeatherDisplay:10.37,2013-08-16 03:15:00,
2013-08-15 20:20:00,66.6,65.1,29.32,South,180,0.0,0.0,95,0.00,CLR,,0.01,WeatherDisplay:10.37,2013-08-16 03:20:00,
2013-08-15 20:25:00,66.4,64.9,29.31,South,180,0.0,0.0,95,0.00,CLR,,0.01,WeatherDisplay:10.37,2013-08-16 03:25:00,
2013-08-15 20:30:00,66.4,64.9,29.32,South,180,0.0,0.0,95,0.00,CLR,,0.01,WeatherDisplay:10.37,2013-08-16 03:30:00,
2013-08-15 20:35:00,66.2,64.7,29.32,South,180,0.0,0.0,95,0.00,CLR,,0.01,WeatherDisplay:10.37,2013-08-16 03:35:00,
2013-08-15 20:40:00,66.2,64.7,29.33,South,180,0.0,0.0,95,0.00,CLR,,0.01,WeatherDisplay:10.37,2013-08-16 03:40:00,
2013-08-15 20:45:00,66.0,64.5,29.33,South,180,0.0,0.0,95,0.00,CLR,,0.01,WeatherDisplay:10.37,2013-08-16 03:45:00,
2013-08-15 20:50:00,66.0,64.5,29.33,South,180,0.0,0.0,95,0.00,CLR,,0.01,WeatherDisplay:10.37,2013-08-16 03:50:00,
2013-08-15 20:55:00,65.8,64.7,29.33,South,180,0.0,0.0,96,0.00,CLR,,0.01,WeatherDisplay:10.37,2013-08-16 03:55:00,
2013-08-15 21:00:00,65.8,64.7,29.33,South,180,0.0,0.0,96,0.00,CLR,,0.01,WeatherDisplay:10.37,2013-08-16 04:00:00,
2013-08-15 21:01:00,65.8,64.7,29.33,South,180,0.0,0.0,96,0.00,CLR,,0.01,WeatherDisplay:10.37,2013-08-16 04:01:00,
2013-08-15 21:02:00,65.8,64.7,29.33,South,180,0.0,0.0,96,0.00,CLR,,0.01,WeatherDisplay:10.37,2013-08-16 04:02:00,
2013-08-15 21:07:00,65.8,64.7,29.33,South,180,0.0,0.0,96,0.00,CLR,,0.01,WeatherDisplay:10.37,2013-08-16 04:07:00,
2013-08-15 21:12:00,65.8,64.7,29.33,South,180,0.0,0.0,96,0.00,CLR,,0.01,WeatherDisplay:10.37,2013-08-16 04:12:00,
2013-08-15 21:17:00,65.8,64.7,29.33,South,180,0.0,0.0,96,0.00,CLR,,0.01,WeatherDisplay:10.37,2013-08-16 04:17:00,
2013-08-15 21:22:00,65.7,64.5,29.33,South,180,0.0,0.0,96,0.00,CLR,,0.01,WeatherDisplay:10.37,2013-08-16 04:22:00,
2013-08-15 21:27:00,65.7,64.5,29.33,South,180,0.0,0.0,96,0.00,CLR,,0.01,WeatherDisplay:10.37,2013-08-16 04:27:00,
2013-08-15 21:32:00,65.5,64.3,29.33,South,180,0.0,0.0,96,0.00,CLR,,0.01,WeatherDisplay:10.37,2013-08-16 04:32:00,
2013-08-15 21:37:00,65.3,64.1,29.33,South,180,0.0,0.0,96,0.00,CLR,,0.01,WeatherDisplay:10.37,2013-08-16 04:37:00,
2013-08-15 21:42:00,65.3,64.1,29.34,South,180,0.0,0.0,96,0.00,CLR,,0.01,WeatherDisplay:10.37,2013-08-16 04:42:00,
2013-08-15 21:47:00,65.1,64.0,29.34,South,180,0.0,0.0,96,0.00,CLR,,0.01,WeatherDisplay:10.37,2013-08-16 04:47:00,
2013-08-15 21:52:00,65.1,64.0,29.34,South,180,0.0,0.0,96,0.00,CLR,,0.01,WeatherDisplay:10.37,2013-08-16 04:52:00,
2013-08-15 21:57:00,65.1,64.0,29.33,South,180,0.0,0.0,96,0.00,CLR,,0.01,WeatherDisplay:10.37,2013-08-16 04:57:00,
2013-08-15 22:02:00,64.8,63.6,29.33,South,180,0.0,0.0,96,0.00,CLR,,0.01,WeatherDisplay:10.37,2013-08-16 05:02:00,
2013-08-15 22:07:00,64.8,63.6,29.33,South,180,0.0,0.0,96,0.00,CLR,,0.01,WeatherDisplay:10.37,2013-08-16 05:07:00,
2013-08-15 22:12:00,64.6,63.4,29.34,South,180,1.1,0.0,96,0.00,CLR,,0.01,WeatherDisplay:10.37,2013-08-16 05:12:00,
2013-08-15 22:19:00,64.4,63.2,29.34,South,180,0.0,0.0,96,0.00,CLR,,0.01,WeatherDisplay:10.37,2013-08-16 05:19:00,
2013-08-15 22:24:00,64.4,63.2,29.34,South,180,0.0,0.0,96,0.00,CLR,,0.01,WeatherDisplay:10.37,2013-08-16 05:24:00,
2013-08-15 22:29:00,64.2,63.1,29.34,South,180,0.0,0.0,96,0.00,CLR,,0.01,WeatherDisplay:10.37,2013-08-16 05:29:00,
2013-08-15 22:34:00,64.2,63.1,29.34,South,180,0.0,0.0,96,0.00,CLR,,0.01,WeatherDisplay:10.37,2013-08-16 05:34:00,
2013-08-15 22:39:00,64.0,62.9,29.34,South,180,0.0,0.0,96,0.00,CLR,,0.01,WeatherDisplay:10.37,2013-08-16 05:39:00,
2013-08-15 22:44:00,64.0,62.9,29.34,South,180,0.0,0.0,96,0.00,CLR,,0.01,WeatherDisplay:10.37,2013-08-16 05:44:00,
2013-08-15 22:49:00,64.0,62.9,29.35,South,180,0.0,0.0,96,0.00,CLR,,0.01,WeatherDisplay:10.37,2013-08-16 05:49:00,
2013-08-15 22:54:00,63.9,62.7,29.35,South,180,0.0,0.0,96,0.00,CLR,,0.01,WeatherDisplay:10.37,2013-08-16 05:54:00,
2013-08-15 22:59:00,63.9,62.7,29.34,South,180,0.0,0.0,96,0.00,CLR,,0.01,WeatherDisplay:10.37,2013-08-16 05:59:00,
2013-08-15 23:04:00,63.9,63.0,29.34,South,180,0.0,0.0,97,0.00,CLR,,0.01,WeatherDisplay:10.37,2013-08-16 06:04:00,
2013-08-15 23:09:00,63.9,63.0,29.34,South,180,0.0,0.0,97,0.00,CLR,,0.01,WeatherDisplay:10.37,2013-08-16 06:09:00,
2013-08-15 23:14:00,63.9,63.0,29.34,South,180,0.0,0.0,97,0.00,CLR,,0.01,WeatherDisplay:10.37,2013-08-16 06:14:00,
2013-08-15 23:19:00,63.9,63.0,29.34,South,180,0.0,0.0,97,0.00,CLR,,0.01,WeatherDisplay:10.37,2013-08-16 06:19:00,
2013-08-15 23:24:00,63.9,63.0,29.33,South,180,0.0,0.0,97,0.00,CLR,,0.01,WeatherDisplay:10.37,2013-08-16 06:24:00,
2013-08-15 23:29:00,63.9,63.0,29.33,South,180,0.0,0.0,97,0.00,CLR,,0.01,WeatherDisplay:10.37,2013-08-16 06:29:00,
2013-08-15 23:34:00,63.7,62.8,29.34,South,180,0.0,0.0,97,0.00,CLR,,0.01,WeatherDisplay:10.37,2013-08-16 06:34:00,
2013-08-15 23:39:00,63.7,62.8,29.34,South,180,0.0,0.0,97,0.00,CLR,,0.01,WeatherDisplay:10.37,2013-08-16 06:39:00,
2013-08-15 23:44:00,63.7,62.8,29.34,South,180,0.0,0.0,97,0.00,CLR,,0.01,WeatherDisplay:10.37,2013-08-16 06:44:00,
2013-08-15 23:50:00,63.7,62.8,29.34,South,180,0.0,0.0,97,0.00,CLR,,0.01,WeatherDisplay:10.37,2013-08-16 06:50:00,
2013-08-15 23:55:00,63.7,62.8,29.34,South,180,0.0,0.0,97,0.00,CLR,,0.01,WeatherDisplay:10.37,2013-08-16 06:55:00,